Time;durP1;ratioP1;P1;durP2;ratioP2;P2;SDS_P1;SDS_P2;PMS_P1;PMS_P2;Temp;Humidity;BMP_temperature;BMP_pressure;BME280_temperature;BME280_humidity;BME280_pressure;Samples;Min_cycle;Max_cycle;Signal;HPM_P1;HPM_P2
2023/02/20 00:00:26;;;;;;;5.55;4.15;;;;;12.10;102329.00;;;;5082891;28;20579;-75
2023/02/20 00:02:54;;;;;;;8.02;4.20;;;;;12.20;102317.00;;;;5082973;28;20217;-75
2023/02/20 00:05:22;;;;;;;7.30;4.57;;;;;12.20;102311.00;;;;5088364;28;20222;-75
2023/02/20 00:07:49;;;;;;;6.95;4.47;;;;;12.20;102303.00;;;;5088877;28;20225;-75
2023/02/20 00:10:18;;;;;;;8.93;4.40;;;;;12.20;102302.00;;;;5085997;28;20205;-75
2023/02/20 00:12:47;;;;;;;6.25;4.35;;;;;12.20;102292.00;;;;5078693;28;20575;-75
2023/02/20 00:15:18;;;;;;;6.93;4.45;;;;;12.20;102281.00;;;;5081604;28;20566;-75
2023/02/20 00:17:46;;;;;;;7.20;5.03;;;;;12.20;102259.00;;;;5080590;28;20231;-75
2023/02/20 00:20:16;;;;;;;8.68;5.10;;;;;12.20;102257.00;;;;5080963;28;20187;-75
2023/02/20 00:22:44;;;;;;;8.77;4.75;;;;;12.30;102271.00;;;;5080182;28;20194;-75
2023/02/20 00:25:11;;;;;;;8.43;5.32;;;;;12.30;102293.00;;;;5083677;28;20240;-75
2023/02/20 00:27:38;;;;;;;6.93;5.03;;;;;12.30;102291.00;;;;5089399;28;20202;-75
2023/02/20 00:30:11;;;;;;;10.45;5.30;;;;;12.30;102287.00;;;;5090115;28;20198;-75
2023/02/20 00:32:38;;;;;;;8.50;5.20;;;;;12.30;102276.00;;;;5069027;28;20202;-76
2023/02/20 00:35:06;;;;;;;7.97;5.55;;;;;12.30;102279.00;;;;5085192;28;20198;-75
2023/02/20 00:37:33;;;;;;;7.38;5.63;;;;;12.30;102268.00;;;;5087942;28;20570;-75
2023/02/20 00:40:01;;;;;;;7.53;5.15;;;;;12.30;102272.00;;;;5088796;28;20195;-75
2023/02/20 00:42:28;;;;;;;9.65;5.25;;;;;12.40;102269.00;;;;5089568;28;20214;-75
2023/02/20 00:44:55;;;;;;;8.55;5.90;;;;;12.40;102266.00;;;;5089219;28;20221;-76
2023/02/20 00:47:24;;;;;;;10.70;7.43;;;;;12.30;102262.00;;;;5089038;28;20233;-76
2023/02/20 00:49:51;;;;;;;8.80;5.95;;;;;12.30;102259.00;;;;5089218;28;20213;-76
2023/02/20 00:52:19;;;;;;;8.32;5.60;;;;;12.30;102258.00;;;;5088518;28;20540;-76
2023/02/20 00:54:46;;;;;;;7.93;5.57;;;;;12.30;102254.00;;;;5089146;28;20198;-75
2023/02/20 00:57:13;;;;;;;7.45;5.80;;;;;12.40;102259.00;;;;5087413;28;20194;-76
2023/02/20 00:59:40;;;;;;;8.57;6.25;;;;;12.40;102262.00;;;;5089012;28;20205;-76
2023/02/20 01:02:08;;;;;;;8.75;5.72;;;;;12.40;102254.00;;;;5087408;28;20207;-76
2023/02/20 01:04:37;;;;;;;8.55;5.60;;;;;12.30;102239.00;;;;5081484;28;20218;-76
2023/02/20 01:07:04;;;;;;;7.35;6.03;;;;;12.40;102234.00;;;;5079551;28;21120;-76
2023/02/20 01:09:31;;;;;;;9.02;6.13;;;;;12.40;102225.00;;;;5080065;28;20198;-76
2023/02/20 01:11:58;;;;;;;10.88;6.10;;;;;12.30;102229.00;;;;5078140;28;20201;-76
2023/02/20 01:14:26;;;;;;;8.30;6.03;;;;;12.30;102219.00;;;;5080937;28;20205;-76
2023/02/20 01:16:54;;;;;;;6.88;5.35;;;;;12.30;102216.00;;;;5080446;28;20194;-75
2023/02/20 01:19:22;;;;;;;9.95;6.25;;;;;12.30;102201.00;;;;5077990;28;20198;-75
2023/02/20 01:21:51;;;;;;;7.20;5.80;;;;;12.30;102184.00;;;;5087359;28;20209;-75
2023/02/20 01:24:19;;;;;;;9.80;5.93;;;;;12.20;102171.00;;;;5080622;28;20233;-75
2023/02/20 01:26:48;;;;;;;9.13;5.85;;;;;12.20;102163.00;;;;5082097;28;20190;-75
2023/02/20 01:29:16;;;;;;;9.82;6.18;;;;;12.20;102166.00;;;;5079305;28;20203;-75
2023/02/20 01:31:48;;;;;;;7.93;5.80;;;;;12.10;102158.00;;;;5078927;28;20556;-75
2023/02/20 01:34:15;;;;;;;7.45;5.20;;;;;12.10;102154.00;;;;5079968;28;20243;-75
2023/02/20 01:36:47;;;;;;;9.93;6.10;;;;;12.00;102159.00;;;;5079354;28;20209;-75
2023/02/20 01:39:18;;;;;;;9.20;6.10;;;;;12.00;102160.00;;;;5079368;28;20473;-76
2023/02/20 01:41:47;;;;;;;7.90;5.40;;;;;12.00;102168.00;;;;5078403;28;20259;-75
2023/02/20 01:44:19;;;;;;;11.85;6.30;;;;;12.00;102159.00;;;;5080524;28;20190;-76
2023/02/20 01:46:53;;;;;;;8.88;6.28;;;;;11.90;102162.00;;;;5078985;28;20226;-76
2023/02/20 01:49:25;;;;;;;7.95;5.72;;;;;11.90;102165.00;;;;5083009;28;20565;-76
2023/02/20 01:52:01;;;;;;;9.57;6.15;;;;;11.90;102162.00;;;;5087379;28;20206;-76
2023/02/20 01:54:31;;;;;;;7.20;5.30;;;;;11.90;102160.00;;;;5086726;28;20206;-76
2023/02/20 01:57:02;;;;;;;7.63;5.68;;;;;11.90;102154.00;;;;5078898;28;20217;-76
2023/02/20 01:59:33;;;;;;;7.88;5.63;;;;;12.00;102146.00;;;;5079350;28;20201;-76
2023/02/20 02:02:01;;;;;;;8.68;5.95;;;;;12.00;102158.00;;;;5078116;28;20201;-76
2023/02/20 02:04:29;;;;;;;8.75;5.88;;;;;12.00;102153.00;;;;5078832;28;20230;-76
2023/02/20 02:06:56;;;;;;;8.55;5.70;;;;;12.00;102148.00;;;;5079608;28;20216;-76
2023/02/20 02:09:36;;;;;;;10.45;5.95;;;;;12.00;102162.00;;;;5079539;28;20566;-75
2023/02/20 02:12:04;;;;;;;8.77;6.00;;;;;12.10;102157.00;;;;5078001;28;20201;-76
2023/02/20 02:14:31;;;;;;;9.18;5.72;;;;;12.10;102142.00;;;;5077143;28;20387;-76
2023/02/20 02:17:13;;;;;;;9.57;6.55;;;;;12.10;102131.00;;;;5077829;28;20199;-76
2023/02/20 02:20:07;;;;;;;9.88;6.50;;;;;12.10;102136.00;;;;5078961;28;20201;-76
2023/02/20 02:23:16;;;;;;;9.55;6.55;;;;;12.10;102140.00;;;;5079135;28;20198;-76
2023/02/20 02:25:55;;;;;;;11.77;6.80;;;;;12.20;102148.00;;;;5076448;28;20214;-76
2023/02/20 02:28:57;;;;;;;9.40;7.43;;;;;12.20;102132.00;;;;5076941;28;20201;-76
2023/02/20 02:31:50;;;;;;;10.35;7.53;;;;;12.20;102128.00;;;;5078259;28;20197;-76
2023/02/20 02:34:58;;;;;;;10.52;7.85;;;;;12.30;102131.00;;;;5078995;28;20201;-76
2023/02/20 02:37:30;;;;;;;12.07;6.88;;;;;12.40;102135.00;;;;5081242;28;20758;-76
2023/02/20 02:40:03;;;;;;;10.20;7.93;;;;;12.40;102125.00;;;;5082808;28;20221;-75
2023/02/20 02:42:41;;;;;;;11.63;8.43;;;;;12.50;102122.00;;;;5085353;28;20206;-75
2023/02/20 02:45:16;;;;;;;14.05;8.30;;;;;12.50;102126.00;;;;5083579;28;20236;-76
2023/02/20 02:47:49;;;;;;;10.88;8.52;;;;;12.50;102118.00;;;;5083233;28;20583;-76
2023/02/20 02:50:23;;;;;;;11.20;8.10;;;;;12.60;102115.00;;;;5083080;28;20194;-76
2023/02/20 02:52:53;;;;;;;14.05;9.38;;;;;12.60;102102.00;;;;5081663;28;20198;-76
2023/02/20 02:55:22;;;;;;;10.57;8.50;;;;;12.70;102107.00;;;;5083944;28;20220;-76
2023/02/20 02:57:50;;;;;;;15.82;9.18;;;;;12.70;102107.00;;;;5082331;28;20198;-76
2023/02/20 03:00:21;;;;;;;12.88;9.07;;;;;12.70;102101.00;;;;5083311;28;20289;-76
2023/02/20 03:02:56;;;;;;;16.08;10.43;;;;;12.70;102102.00;;;;5082894;28;20190;-76
2023/02/20 03:05:38;;;;;;;13.27;9.25;;;;;12.80;102108.00;;;;5083243;28;21797;-76
2023/02/20 03:08:13;;;;;;;13.13;8.85;;;;;12.80;102110.00;;;;5082189;28;20214;-76
2023/02/20 03:10:43;;;;;;;16.15;9.82;;;;;12.80;102098.00;;;;5082699;28;20208;-76
2023/02/20 03:13:12;;;;;;;15.02;9.52;;;;;12.90;102094.00;;;;5081612;28;20296;-76
2023/02/20 03:15:45;;;;;;;12.50;8.65;;;;;12.90;102102.00;;;;5080735;28;20202;-76
2023/02/20 03:18:23;;;;;;;17.30;10.30;;;;;12.90;102098.00;;;;5082620;28;20256;-76
2023/02/20 03:20:54;;;;;;;16.98;9.27;;;;;12.90;102101.00;;;;5081925;28;20205;-76
2023/02/20 03:23:26;;;;;;;16.70;10.77;;;;;13.00;102094.00;;;;5082612;28;20186;-76
2023/02/20 03:25:58;;;;;;;14.65;10.02;;;;;13.00;102098.00;;;;5081246;28;20256;-76
2023/02/20 03:28:30;;;;;;;14.13;9.38;;;;;13.00;102098.00;;;;5081503;28;20194;-76
2023/02/20 03:31:04;;;;;;;16.70;10.05;;;;;13.00;102091.00;;;;5081432;28;20210;-76
2023/02/20 03:44:54;;;;;;;16.60;9.35;;;;;13.10;102093.00;;;;5081442;28;20361;-77
2023/02/20 03:47:25;;;;;;;15.55;9.65;;;;;13.20;102082.00;;;;5081081;28;20226;-76
2023/02/20 03:49:53;;;;;;;13.85;8.55;;;;;13.20;102085.00;;;;5079851;28;20199;-77
2023/02/20 03:52:21;;;;;;;15.27;9.63;;;;;13.20;102077.00;;;;5080566;28;20201;-76
2023/02/20 03:54:51;;;;;;;16.73;9.20;;;;;13.20;102078.00;;;;5081517;28;20201;-77
2023/02/20 03:57:22;;;;;;;13.05;8.60;;;;;13.20;102078.00;;;;5081460;28;20194;-77
2023/02/20 03:59:53;;;;;;;12.27;9.00;;;;;13.20;102074.00;;;;5081022;28;20191;-77
2023/02/20 04:02:23;;;;;;;16.88;10.23;;;;;13.20;102085.00;;;;5081953;28;20198;-77
2023/02/20 04:04:55;;;;;;;16.33;10.68;;;;;13.20;102075.00;;;;5080903;28;20202;-77
2023/02/20 04:07:27;;;;;;;16.75;10.00;;;;;13.20;102074.00;;;;5080507;28;20218;-77
2023/02/20 04:10:00;;;;;;;16.00;10.25;;;;;13.20;102080.00;;;;5081317;28;20190;-76
2023/02/20 04:12:32;;;;;;;15.85;10.32;;;;;13.20;102078.00;;;;5080666;28;20202;-77
2023/02/20 04:15:00;;;;;;;21.00;10.85;;;;;13.30;102075.00;;;;5086195;28;20205;-77
2023/02/20 04:17:32;;;;;;;17.20;10.52;;;;;13.30;102065.00;;;;5083569;28;20597;-77
2023/02/20 04:19:59;;;;;;;18.95;11.63;;;;;13.30;102069.00;;;;5085667;28;20202;-77
2023/02/20 04:22:31;;;;;;;18.65;11.20;;;;;13.30;102074.00;;;;5079521;28;20210;-77
2023/02/20 04:25:03;;;;;;;18.98;10.63;;;;;13.30;102077.00;;;;5084757;28;20213;-77
2023/02/20 04:27:31;;;;;;;15.77;10.50;;;;;13.30;102071.00;;;;5079918;28;20309;-77
2023/02/20 04:29:59;;;;;;;15.82;10.32;;;;;13.30;102065.00;;;;5080193;28;20734;-77
2023/02/20 04:32:26;;;;;;;17.48;10.88;;;;;13.40;102069.00;;;;5080939;28;20194;-76
2023/02/20 04:34:53;;;;;;;18.17;10.38;;;;;13.40;102067.00;;;;5080387;28;20209;-76
2023/02/20 04:37:21;;;;;;;16.00;9.95;;;;;13.40;102067.00;;;;5080573;28;20221;-76
2023/02/20 04:39:49;;;;;;;15.18;10.30;;;;;13.40;102069.00;;;;5080173;28;20201;-77
2023/02/20 04:42:18;;;;;;;19.08;11.65;;;;;13.40;102066.00;;;;5081750;28;20209;-76
2023/02/20 04:44:45;;;;;;;17.83;11.15;;;;;13.40;102074.00;;;;5081313;28;20818;-77
2023/02/20 04:47:16;;;;;;;19.90;11.50;;;;;13.40;102074.00;;;;5079214;28;20241;-76
2023/02/20 04:49:44;;;;;;;18.23;11.68;;;;;13.40;102076.00;;;;5081699;28;20205;-76
2023/02/20 04:52:11;;;;;;;16.75;10.45;;;;;13.40;102073.00;;;;5081723;28;20202;-77
2023/02/20 04:54:39;;;;;;;20.77;11.05;;;;;13.50;102068.00;;;;5080624;28;20190;-76
2023/02/20 04:57:06;;;;;;;19.27;12.38;;;;;13.50;102056.00;;;;5081447;28;20198;-76
2023/02/20 04:59:36;;;;;;;19.33;12.05;;;;;13.50;102064.00;;;;5081283;28;20205;-76
2023/02/20 05:02:03;;;;;;;15.50;10.70;;;;;13.50;102063.00;;;;5080759;28;20195;-76
2023/02/20 05:04:30;;;;;;;23.48;11.50;;;;;13.50;102058.00;;;;5080684;28;20198;-76
2023/02/20 05:06:58;;;;;;;19.20;10.77;;;;;13.50;102064.00;;;;5085662;28;20222;-77
2023/02/20 05:09:26;;;;;;;19.90;10.65;;;;;13.50;102056.00;;;;5081902;28;20199;-76
2023/02/20 05:11:53;;;;;;;25.17;11.63;;;;;13.60;102053.00;;;;5080135;28;20197;-76
2023/02/20 05:14:21;;;;;;;24.80;11.95;;;;;13.60;102055.00;;;;5079949;28;20198;-77
2023/02/20 05:16:51;;;;;;;19.35;10.95;;;;;13.60;102060.00;;;;5081138;28;20198;-76
2023/02/20 05:19:18;;;;;;;16.25;10.82;;;;;13.60;102066.00;;;;5080926;28;20243;-76
2023/02/20 05:24:31;;;;;;;16.35;9.52;;;;;13.60;102059.00;;;;5083471;28;20682;-77
2023/02/20 05:26:59;;;;;;;15.13;8.80;;;;;13.60;102064.00;;;;5080505;28;20276;-76
2023/02/20 05:29:26;;;;;;;13.85;9.23;;;;;13.70;102056.00;;;;5083464;28;20673;-77
2023/02/20 05:31:55;;;;;;;15.02;9.35;;;;;13.70;102049.00;;;;5079879;28;20213;-77
2023/02/20 05:34:24;;;;;;;15.60;9.50;;;;;13.70;102053.00;;;;5079201;28;20194;-77
2023/02/20 05:36:52;;;;;;;14.82;8.15;;;;;13.70;102065.00;;;;5080167;28;21122;-76
2023/02/20 05:39:19;;;;;;;14.75;8.90;;;;;13.70;102052.00;;;;5081819;28;20194;-76
2023/02/20 05:41:48;;;;;;;17.30;8.82;;;;;13.70;102058.00;;;;5080201;28;20204;-76
2023/02/20 05:44:15;;;;;;;16.23;8.73;;;;;13.70;102059.00;;;;5082694;28;20671;-76
2023/02/20 05:46:43;;;;;;;14.32;7.85;;;;;13.80;102061.00;;;;5087854;28;20233;-77
2023/02/20 05:49:12;;;;;;;12.10;7.78;;;;;13.70;102058.00;;;;5081240;28;20206;-76
2023/02/20 05:51:39;;;;;;;15.60;7.53;;;;;13.80;102048.00;;;;5078990;28;20280;-77
2023/02/20 05:54:07;;;;;;;16.90;7.97;;;;;13.80;102043.00;;;;5080309;28;20190;-76
2023/02/20 05:56:35;;;;;;;11.45;7.50;;;;;13.80;102070.00;;;;5078998;28;20202;-76
2023/02/20 05:59:02;;;;;;;10.05;7.03;;;;;13.80;102063.00;;;;5081463;28;20199;-76
2023/02/20 06:01:31;;;;;;;10.73;6.88;;;;;13.80;102056.00;;;;5080128;28;20232;-77
2023/02/20 06:04:00;;;;;;;13.43;6.88;;;;;13.80;102062.00;;;;5078976;28;20332;-77
2023/02/20 06:06:32;;;;;;;13.43;7.25;;;;;13.80;102052.00;;;;5078400;28;20600;-77
2023/02/20 06:08:59;;;;;;;12.38;5.72;;;;;13.90;102046.00;;;;5078578;28;20218;-77
2023/02/20 06:11:27;;;;;;;11.95;5.47;;;;;13.90;102047.00;;;;5079536;28;20203;-76
2023/02/20 06:13:55;;;;;;;9.10;5.32;;;;;13.90;102045.00;;;;5079087;28;20296;-76
2023/02/20 06:16:24;;;;;;;8.23;4.80;;;;;13.90;102044.00;;;;5079908;28;20672;-76
2023/02/20 06:18:53;;;;;;;9.30;5.88;;;;;13.90;102042.00;;;;5078329;28;20244;-76
2023/02/20 06:21:22;;;;;;;11.25;5.95;;;;;13.90;102047.00;;;;5081011;28;20199;-76
2023/02/20 06:23:51;;;;;;;14.30;6.07;;;;;13.90;102048.00;;;;5080218;28;20285;-76
2023/02/20 06:26:20;;;;;;;12.25;5.85;;;;;13.90;102049.00;;;;5079977;28;20226;-76
2023/02/20 06:28:49;;;;;;;10.02;5.60;;;;;14.00;102056.00;;;;5080302;28;20210;-76
2023/02/20 06:31:22;;;;;;;11.05;4.85;;;;;13.90;102056.00;;;;5083218;28;20202;-76
2023/02/20 06:33:49;;;;;;;8.45;5.22;;;;;14.00;102050.00;;;;5077468;28;20186;-76
2023/02/20 06:36:22;;;;;;;11.23;5.53;;;;;13.90;102053.00;;;;5079890;28;20228;-76
2023/02/20 06:38:51;;;;;;;12.88;5.25;;;;;13.90;102054.00;;;;5079225;28;20198;-76
2023/02/20 06:41:18;;;;;;;10.88;4.93;;;;;13.90;102053.00;;;;5085601;28;20208;-76
2023/02/20 06:43:45;;;;;;;11.77;4.50;;;;;14.00;102050.00;;;;5086504;28;20206;-75
2023/02/20 06:46:13;;;;;;;13.75;5.22;;;;;14.00;102053.00;;;;5085252;28;20252;-76
2023/02/20 06:48:45;;;;;;;10.10;4.32;;;;;13.90;102054.00;;;;5087186;28;20205;-76
2023/02/20 06:51:12;;;;;;;9.48;5.65;;;;;14.00;102057.00;;;;5081442;28;20214;-76
2023/02/20 06:53:41;;;;;;;6.50;3.88;;;;;14.00;102068.00;;;;5082340;28;20202;-76
2023/02/20 06:56:14;;;;;;;13.30;4.38;;;;;14.00;102064.00;;;;5084554;28;20761;-76
2023/02/20 06:58:41;;;;;;;8.00;3.90;;;;;14.00;102078.00;;;;5084477;28;20225;-76
2023/02/20 07:01:09;;;;;;;6.47;4.13;;;;;14.00;102075.00;;;;5084050;28;20198;-76
2023/02/20 07:03:37;;;;;;;6.28;3.53;;;;;14.00;102072.00;;;;5082662;28;20194;-75
2023/02/20 07:06:04;;;;;;;9.07;4.22;;;;;14.00;102063.00;;;;5080838;28;20220;-76
2023/02/20 07:08:32;;;;;;;5.53;3.75;;;;;14.00;102066.00;;;;5086538;28;20229;-77
2023/02/20 07:10:59;;;;;;;13.05;5.15;;;;;14.00;102069.00;;;;5079670;28;20961;-77
2023/02/20 07:13:27;;;;;;;10.73;4.10;;;;;14.00;102059.00;;;;5084721;28;20210;-76
2023/02/20 07:15:55;;;;;;;10.45;4.68;;;;;14.00;102056.00;;;;5086703;28;20195;-76
2023/02/20 07:18:22;;;;;;;8.10;4.07;;;;;14.10;102056.00;;;;5086926;28;20203;-76
2023/02/20 07:20:50;;;;;;;9.63;3.47;;;;;14.10;102063.00;;;;5087880;28;20202;-76
2023/02/20 07:23:18;;;;;;;10.60;4.53;;;;;14.10;102060.00;;;;5073666;28;20202;-76
2023/02/20 07:25:46;;;;;;;11.85;4.45;;;;;14.10;102060.00;;;;5089464;28;20201;-76
2023/02/20 07:28:14;;;;;;;6.10;3.33;;;;;14.10;102062.00;;;;5090016;28;20218;-77
2023/02/20 07:30:42;;;;;;;10.98;3.78;;;;;14.10;102060.00;;;;5089438;28;20575;-77
2023/02/20 07:33:10;;;;;;;8.43;3.78;;;;;14.10;102049.00;;;;5091169;28;20206;-77
2023/02/20 07:35:38;;;;;;;8.90;3.78;;;;;14.10;102072.00;;;;5088909;28;20199;-77
2023/02/20 07:38:05;;;;;;;11.85;4.32;;;;;14.10;102059.00;;;;5086169;28;20601;-76
2023/02/20 07:40:33;;;;;;;9.88;4.30;;;;;14.10;102053.00;;;;5090043;28;20202;-76
2023/02/20 07:43:01;;;;;;;6.28;3.20;;;;;14.10;102057.00;;;;5090712;28;20194;-76
2023/02/20 07:45:28;;;;;;;10.65;3.95;;;;;14.10;102066.00;;;;5089805;28;20225;-77
2023/02/20 07:47:57;;;;;;;7.53;3.17;;;;;14.10;102058.00;;;;5089023;28;20244;-76
2023/02/20 07:50:24;;;;;;;13.00;3.92;;;;;14.20;102079.00;;;;5091025;28;20199;-77
2023/02/20 07:52:51;;;;;;;11.82;4.13;;;;;14.20;102066.00;;;;5089735;28;20205;-77
2023/02/20 07:55:20;;;;;;;14.77;4.22;;;;;14.20;102064.00;;;;5088874;28;20785;-77
2023/02/20 07:57:49;;;;;;;9.55;4.03;;;;;14.20;102065.00;;;;5085784;28;20663;-77
2023/02/20 08:00:18;;;;;;;7.82;3.20;;;;;14.20;102067.00;;;;5086918;28;20198;-77
2023/02/20 08:02:46;;;;;;;9.50;3.63;;;;;14.20;102063.00;;;;5089207;28;20202;-77
2023/02/20 08:05:15;;;;;;;11.25;3.67;;;;;14.20;102071.00;;;;5087366;28;20194;-76
2023/02/20 08:07:45;;;;;;;7.80;3.58;;;;;14.20;102062.00;;;;5080576;28;20610;-76
2023/02/20 08:10:13;;;;;;;11.55;4.10;;;;;14.30;102059.00;;;;5087141;28;20206;-76
2023/02/20 08:12:41;;;;;;;10.52;4.00;;;;;14.30;102072.00;;;;5088308;28;20205;-78
2023/02/20 08:15:10;;;;;;;9.00;3.78;;;;;14.30;102055.00;;;;5086719;28;20202;-77
2023/02/20 08:17:38;;;;;;;9.18;3.90;;;;;14.30;102055.00;;;;5085462;28;20202;-76
2023/02/20 08:20:07;;;;;;;15.18;4.70;;;;;14.30;102057.00;;;;5089423;28;20267;-76
2023/02/20 08:22:36;;;;;;;10.18;3.50;;;;;14.30;102053.00;;;;5086625;28;20202;-76
2023/02/20 08:25:04;;;;;;;8.65;3.50;;;;;14.30;102060.00;;;;5087444;28;20282;-76
2023/02/20 08:27:31;;;;;;;7.22;3.78;;;;;14.40;102054.00;;;;5087432;28;20229;-76
2023/02/20 08:30:00;;;;;;;9.75;3.88;;;;;14.40;102058.00;;;;5087639;28;20723;-76
2023/02/20 08:32:27;;;;;;;10.38;3.75;;;;;14.40;102057.00;;;;5087867;28;20206;-76
2023/02/20 08:34:55;;;;;;;9.60;3.58;;;;;14.40;102058.00;;;;5086746;28;20641;-76
2023/02/20 08:37:22;;;;;;;12.55;4.22;;;;;14.40;102053.00;;;;5083939;28;20194;-77
2023/02/20 08:39:50;;;;;;;10.57;3.50;;;;;14.50;102047.00;;;;5085382;28;20212;-77
2023/02/20 08:42:18;;;;;;;8.57;4.28;;;;;14.50;102048.00;;;;5087436;28;20197;-76
2023/02/20 08:44:45;;;;;;;10.13;3.47;;;;;14.60;102047.00;;;;5086684;28;20194;-77
2023/02/20 08:47:13;;;;;;;8.02;3.90;;;;;14.60;102059.00;;;;5086123;28;20230;-76
2023/02/20 08:49:40;;;;;;;14.73;4.55;;;;;14.60;102057.00;;;;5086445;28;20511;-76
2023/02/20 08:52:08;;;;;;;11.30;4.32;;;;;14.60;102053.00;;;;5088480;28;20600;-77
2023/02/20 08:54:35;;;;;;;15.45;4.70;;;;;14.60;102059.00;;;;5081748;28;20222;-76
2023/02/20 08:57:04;;;;;;;9.93;4.20;;;;;14.60;102064.00;;;;5086133;28;20211;-77
2023/02/20 08:59:32;;;;;;;8.95;3.72;;;;;14.70;102052.00;;;;5084221;28;20572;-77
2023/02/20 09:01:59;;;;;;;7.00;3.53;;;;;14.70;102043.00;;;;5076075;28;20289;-77
2023/02/20 09:04:26;;;;;;;7.47;3.72;;;;;14.70;102055.00;;;;5089609;28;20198;-77
2023/02/20 09:06:54;;;;;;;7.80;3.60;;;;;14.70;102049.00;;;;5086783;28;20225;-77
2023/02/20 09:09:21;;;;;;;7.20;3.83;;;;;14.70;102043.00;;;;5082518;28;20222;-77
2023/02/20 09:11:48;;;;;;;7.68;3.42;;;;;14.80;102044.00;;;;5086492;28;20213;-77
2023/02/20 09:14:17;;;;;;;9.88;3.92;;;;;14.70;102041.00;;;;5075252;28;20203;-77
2023/02/20 09:16:46;;;;;;;8.48;4.07;;;;;14.80;102047.00;;;;5082619;28;20216;-77
2023/02/20 09:19:14;;;;;;;8.00;4.40;;;;;14.80;102040.00;;;;5081518;28;20206;-77
2023/02/20 09:21:41;;;;;;;8.48;4.25;;;;;14.80;102037.00;;;;5079771;28;20573;-76
2023/02/20 09:24:08;;;;;;;9.10;3.72;;;;;14.80;102034.00;;;;5077748;28;20194;-77
2023/02/20 09:26:35;;;;;;;10.98;4.00;;;;;14.80;102043.00;;;;5087990;28;20684;-77
2023/02/20 09:29:03;;;;;;;5.90;3.67;;;;;14.90;102044.00;;;;5086357;28;20221;-76
2023/02/20 09:31:31;;;;;;;9.48;3.55;;;;;14.90;102041.00;;;;5076834;28;20201;-76
2023/02/20 09:33:59;;;;;;;10.02;3.92;;;;;14.90;102045.00;;;;5069382;28;20202;-76
2023/02/20 09:36:27;;;;;;;12.90;4.50;;;;;14.90;102042.00;;;;5083216;28;20970;-76
2023/02/20 09:38:54;;;;;;;7.53;4.03;;;;;14.90;102044.00;;;;5083446;28;20195;-76
2023/02/20 09:41:34;;;;;;;11.30;3.53;;;;;14.80;102045.00;;;;5085103;28;20213;-76
2023/02/20 09:44:11;;;;;;;10.15;3.35;;;;;14.80;102046.00;;;;5081755;28;20205;-76
2023/02/20 09:46:42;;;;;;;10.80;3.95;;;;;14.80;102041.00;;;;5081574;28;20718;-76
2023/02/20 09:49:12;;;;;;;9.50;4.18;;;;;14.80;102044.00;;;;5084217;28;20704;-77
2023/02/20 09:51:43;;;;;;;8.60;4.13;;;;;14.80;102052.00;;;;5082436;28;20676;-76
2023/02/20 09:54:16;;;;;;;11.93;4.28;;;;;14.70;102057.00;;;;5084579;28;20207;-76
2023/02/20 09:56:48;;;;;;;12.35;5.30;;;;;14.70;102065.00;;;;5077644;28;20201;-76
2023/02/20 09:59:19;;;;;;;10.13;4.32;;;;;14.70;102060.00;;;;5084985;28;20660;-76
2023/02/20 10:01:53;;;;;;;6.88;4.45;;;;;14.70;102050.00;;;;5083980;28;20206;-76
2023/02/20 10:04:23;;;;;;;7.15;3.05;;;;;14.70;102058.00;;;;5083560;28;20208;-76
2023/02/20 10:06:53;;;;;;;7.57;3.90;;;;;14.80;102053.00;;;;5083612;28;20220;-77
2023/02/20 10:09:20;;;;;;;13.98;4.95;;;;;14.80;102062.00;;;;5080533;28;20680;-77
2023/02/20 10:12:02;;;;;;;11.48;4.75;;;;;14.70;102056.00;;;;5085568;28;20648;-77
2023/02/20 10:14:52;;;;;;;8.07;4.15;;;;;14.70;102046.00;;;;5084204;28;20213;-76
2023/02/20 10:17:29;;;;;;;8.18;4.20;;;;;14.70;102051.00;;;;5083213;28;20652;-76
2023/02/20 10:20:03;;;;;;;8.95;4.20;;;;;14.70;102047.00;;;;5085676;28;20194;-77
2023/02/20 10:22:33;;;;;;;9.57;4.43;;;;;14.70;102057.00;;;;5078828;28;20298;-76
2023/02/20 10:25:09;;;;;;;9.38;4.47;;;;;14.70;102056.00;;;;5080617;28;20220;-76
2023/02/20 10:27:47;;;;;;;9.85;5.18;;;;;14.70;102044.00;;;;5084421;28;20279;-76
2023/02/20 10:30:20;;;;;;;9.18;4.80;;;;;14.70;102040.00;;;;5080618;28;20203;-76
2023/02/20 10:32:54;;;;;;;11.13;5.03;;;;;14.70;102046.00;;;;5085477;28;20208;-76
2023/02/20 10:35:26;;;;;;;9.90;5.10;;;;;14.80;102054.00;;;;5086291;28;20208;-76
2023/02/20 10:37:58;;;;;;;9.07;5.28;;;;;14.70;102045.00;;;;5086979;28;20205;-77
2023/02/20 10:40:33;;;;;;;10.68;5.57;;;;;14.80;102047.00;;;;5086946;28;20205;-76
2023/02/20 10:43:09;;;;;;;6.68;4.60;;;;;14.80;102050.00;;;;5086579;28;20198;-76
2023/02/20 10:45:44;;;;;;;9.10;4.40;;;;;14.80;102049.00;;;;5084829;28;20581;-76
2023/02/20 10:48:15;;;;;;;9.45;5.05;;;;;14.80;102025.00;;;;5079232;28;20221;-77
2023/02/20 10:50:49;;;;;;;10.23;5.03;;;;;14.80;102021.00;;;;5083752;28;20198;-76
2023/02/20 10:53:25;;;;;;;7.97;5.03;;;;;14.90;102052.00;;;;5074559;28;20193;-77
2023/02/20 10:55:58;;;;;;;9.57;4.35;;;;;14.90;102051.00;;;;5082549;28;20194;-76
2023/02/20 10:58:31;;;;;;;8.50;4.47;;;;;14.90;102054.00;;;;5081715;28;20747;-75
2023/02/20 11:01:02;;;;;;;7.07;5.15;;;;;14.90;102044.00;;;;5088485;28;20198;-76
2023/02/20 11:03:40;;;;;;;8.55;5.57;;;;;14.80;102027.00;;;;5087581;28;20202;-76
2023/02/20 11:06:11;;;;;;;8.07;4.72;;;;;14.90;102039.00;;;;5088393;28;20194;-76
2023/02/20 11:08:38;;;;;;;7.95;4.57;;;;;14.90;102038.00;;;;5088459;28;20234;-76
2023/02/20 11:11:23;;;;;;;10.63;5.68;;;;;14.80;102041.00;;;;5087269;28;20202;-76
2023/02/20 11:13:50;;;;;;;10.23;4.85;;;;;14.90;102032.00;;;;5079625;28;20206;-76
2023/02/20 11:16:29;;;;;;;14.75;4.93;;;;;14.90;102023.00;;;;5087480;28;20190;-76
2023/02/20 11:19:15;;;;;;;6.85;4.25;;;;;14.80;102036.00;;;;5089571;28;20205;-76
2023/02/20 11:21:47;;;;;;;7.80;4.40;;;;;14.90;102028.00;;;;5088670;28;20199;-77
2023/02/20 11:24:30;;;;;;;8.15;4.60;;;;;14.90;102038.00;;;;5086656;28;20199;-75
2023/02/20 11:27:03;;;;;;;6.53;4.47;;;;;15.00;102043.00;;;;5090573;28;20292;-75
2023/02/20 11:29:37;;;;;;;8.93;4.47;;;;;15.00;102035.00;;;;5089553;28;20226;-76
2023/02/20 11:32:33;;;;;;;8.40;4.75;;;;;14.90;102023.00;;;;5091033;28;20660;-76
2023/02/20 11:35:25;;;;;;;6.63;4.35;;;;;14.90;102017.00;;;;5088217;28;20229;-76
2023/02/20 11:38:18;;;;;;;7.25;4.53;;;;;14.90;101998.00;;;;5088121;28;20198;-76
2023/02/20 11:41:01;;;;;;;6.20;4.22;;;;;15.00;101988.00;;;;5082315;28;20194;-77
2023/02/20 11:43:32;;;;;;;11.40;4.50;;;;;15.00;101982.00;;;;5086368;28;20204;-76
2023/02/20 11:46:09;;;;;;;7.53;4.93;;;;;15.00;101973.00;;;;5088327;28;20222;-76
2023/02/20 11:48:37;;;;;;;6.50;4.55;;;;;15.00;101984.00;;;;5084147;28;20230;-77
2023/02/20 11:51:06;;;;;;;5.90;3.85;;;;;15.00;101990.00;;;;5084294;28;20241;-76
2023/02/20 11:53:35;;;;;;;5.72;3.85;;;;;15.10;102012.00;;;;5083084;28;20198;-77
2023/02/20 11:56:10;;;;;;;5.03;3.40;;;;;15.00;102030.00;;;;5086259;28;20227;-76
2023/02/20 11:58:39;;;;;;;6.22;3.28;;;;;15.10;102002.00;;;;5087568;28;20198;-76
2023/02/20 12:01:08;;;;;;;6.80;3.15;;;;;15.10;101998.00;;;;5083020;28;20197;-76
2023/02/20 12:03:36;;;;;;;7.80;3.38;;;;;15.10;101993.00;;;;5086555;28;20688;-76
2023/02/20 12:06:39;;;;;;;4.90;3.17;;;;;15.10;101990.00;;;;5084361;28;20589;-76
2023/02/20 12:09:11;;;;;;;3.35;2.50;;;;;15.20;102008.00;;;;5083487;28;20308;-76
2023/02/20 12:11:39;;;;;;;6.40;2.88;;;;;15.20;101996.00;;;;5085906;28;20206;-76
2023/02/20 12:14:12;;;;;;;4.28;2.53;;;;;15.20;101994.00;;;;5087290;28;20197;-76
2023/02/20 12:16:59;;;;;;;5.07;2.85;;;;;15.10;102004.00;;;;5084758;28;20583;-76
2023/02/20 12:19:37;;;;;;;5.80;2.85;;;;;15.20;102012.00;;;;5085909;28;20194;-76
2023/02/20 12:22:18;;;;;;;5.80;2.38;;;;;15.20;102011.00;;;;5088707;28;20191;-76
2023/02/20 12:25:03;;;;;;;3.92;3.22;;;;;15.20;102022.00;;;;5085731;28;20201;-76
2023/02/20 12:27:46;;;;;;;5.22;2.78;;;;;15.20;102014.00;;;;5087610;28;20244;-76
2023/02/20 12:30:25;;;;;;;3.65;2.90;;;;;15.20;102009.00;;;;5085452;28;20200;-76
2023/02/20 12:33:02;;;;;;;7.22;2.85;;;;;15.30;102005.00;;;;5087680;28;20202;-76
2023/02/20 12:35:31;;;;;;;3.95;2.45;;;;;15.30;102001.00;;;;5085748;28;20287;-76